Time;durP1;ratioP1;P1;durP2;ratioP2;P2;SDS_P1;SDS_P2;PMS_P1;PMS_P2;Temp;Humidity;BMP_temperature;BMP_pressure;BME280_temperature;BME280_humidity;BME280_pressure;Samples;Min_cycle;Max_cycle;Signal;HPM_P1;HPM_P2
2021/06/10 00:01:24;;;;;;;9.90;8.88;;;;;;;19.63;59.26;98913.47;5021971;28;20335;-66
2021/06/10 00:03:50;;;;;;;9.18;8.38;;;;;;;19.66;58.96;98911.53;5021631;28;20033;-66
2021/06/10 00:06:15;;;;;;;8.35;7.60;;;;;;;19.65;59.10;98909.84;5020682;28;20037;-64
2021/06/10 00:08:40;;;;;;;8.27;7.60;;;;;;;19.65;59.09;98909.03;5022517;28;20058;-68
2021/06/10 00:11:06;;;;;;;8.00;7.47;;;;;;;19.60;59.51;98914.47;5022021;28;20041;-66
2021/06/10 00:13:31;;;;;;;9.20;7.47;;;;;;;19.61;59.17;98910.94;5024906;28;20029;-65
2021/06/10 00:15:57;;;;;;;7.93;7.32;;;;;;;19.58;59.66;98911.94;5021335;28;20026;-66
2021/06/10 00:18:23;;;;;;;8.65;7.85;;;;;;;19.54;59.69;98922.59;5020986;28;20036;-66
2021/06/10 00:20:49;;;;;;;7.97;7.38;;;;;;;19.54;60.44;98915.63;5024123;28;20041;-66
2021/06/10 00:23:14;;;;;;;8.40;7.80;;;;;;;19.41;61.07;98911.91;5022714;28;20441;-66
2021/06/10 00:25:40;;;;;;;8.52;7.72;;;;;;;19.30;62.20;98911.63;5019757;28;20113;-66
2021/06/10 00:28:06;;;;;;;9.02;8.23;;;;;;;19.17;63.03;98910.56;5021504;28;20034;-66
2021/06/10 00:30:33;;;;;;;8.25;7.45;;;;;;;19.07;63.99;98923.16;5026183;28;20032;-65
2021/06/10 00:32:59;;;;;;;8.93;7.82;;;;;;;18.94;64.89;98922.06;5022824;28;20026;-66
2021/06/10 00:35:25;;;;;;;8.68;7.88;;;;;;;18.84;65.15;98922.59;5020665;28;20397;-65
2021/06/10 00:37:56;;;;;;;8.75;8.07;;;;;;;18.76;65.63;98929.88;5019223;28;20056;-66
2021/06/10 00:40:21;;;;;;;9.43;8.35;;;;;;;18.64;65.89;98926.09;5024597;28;20363;-65
2021/06/10 00:42:47;;;;;;;9.10;8.30;;;;;;;18.60;66.55;98927.16;5021447;28;20037;-65
2021/06/10 00:45:15;;;;;;;9.65;8.80;;;;;;;18.48;67.20;98936.34;5022710;28;20033;-64
2021/06/10 00:47:42;;;;;;;8.98;8.10;;;;;;;18.39;67.83;98931.56;5024363;28;20105;-65
2021/06/10 00:50:08;;;;;;;8.82;8.07;;;;;;;18.35;68.65;98927.44;5020046;28;20037;-65
2021/06/10 00:52:34;;;;;;;8.95;8.18;;;;;;;18.22;69.60;98939.28;5024070;28;20029;-65
2021/06/10 00:55:00;;;;;;;8.95;8.10;;;;;;;18.18;70.10;98927.34;5020625;28;20055;-66
2021/06/10 00:57:25;;;;;;;9.68;8.88;;;;;;;18.13;70.64;98930.13;5024108;28;20060;-65
2021/06/10 00:59:51;;;;;;;10.68;9.77;;;;;;;18.11;70.79;98925.94;5024997;28;20382;-65
2021/06/10 01:02:16;;;;;;;10.15;9.15;;;;;;;18.14;70.89;98924.06;5019441;28;20128;-65
2021/06/10 01:04:41;;;;;;;10.15;9.18;;;;;;;18.14;71.14;98931.00;5021229;28;20034;-65
2021/06/10 01:07:15;;;;;;;12.18;9.43;;;;;;;18.17;71.61;98928.25;5019129;28;20034;-65
2021/06/10 01:09:47;;;;;;;10.07;9.05;;;;;;;18.16;71.52;98930.00;5020047;28;20073;-66
2021/06/10 01:12:21;;;;;;;10.68;9.75;;;;;;;18.13;71.60;98921.50;5019690;28;20045;-65
2021/06/10 01:15:02;;;;;;;10.10;9.23;;;;;;;18.10;72.83;98921.66;5024364;28;20071;-65
2021/06/10 01:17:30;;;;;;;10.57;9.70;;;;;;;18.07;72.45;98917.47;5022370;28;20041;-65
2021/06/10 01:20:04;;;;;;;11.43;10.32;;;;;;;18.17;72.07;98923.06;5022083;28;20036;-65
2021/06/10 01:22:48;;;;;;;10.32;9.35;;;;;;;18.15;72.23;98919.69;5020937;28;20041;-66
2021/06/10 01:25:45;;;;;;;11.65;10.65;;;;;;;18.07;72.75;98914.03;5019973;28;20041;-65
2021/06/10 01:28:17;;;;;;;11.55;10.45;;;;;;;18.09;72.76;98913.03;5023484;28;20037;-65
2021/06/10 01:30:55;;;;;;;10.55;9.60;;;;;;;18.11;72.00;98912.97;5017671;28;20037;-66
2021/06/10 01:33:26;;;;;;;11.75;10.18;;;;;;;18.09;72.57;98917.38;5021389;28;20061;-67
2021/06/10 01:36:02;;;;;;;10.95;10.05;;;;;;;18.14;72.08;98911.06;5020748;28;20025;-66
2021/06/10 01:38:30;;;;;;;11.90;10.80;;;;;;;18.10;72.37;98914.72;5021082;28;20026;-65
2021/06/10 01:40:56;;;;;;;11.13;10.10;;;;;;;18.02;71.96;98915.97;5019368;28;20401;-65
2021/06/10 01:43:25;;;;;;;10.82;9.85;;;;;;;18.07;71.80;98917.47;5018654;28;20071;-66
2021/06/10 01:45:51;;;;;;;10.77;9.88;;;;;;;18.02;71.78;98916.81;5021227;28;20342;-65
2021/06/10 01:48:18;;;;;;;10.15;9.27;;;;;;;18.05;71.71;98914.06;5023665;28;20021;-65
2021/06/10 01:50:49;;;;;;;11.00;10.10;;;;;;;18.05;71.84;98921.84;5019411;28;20025;-67
2021/06/10 01:53:16;;;;;;;8.98;8.07;;;;;;;18.06;71.38;98913.16;5022468;28;20029;-67
2021/06/10 01:55:43;;;;;;;9.75;8.90;;;;;;;18.08;71.26;98919.13;5020324;28;20041;-66
2021/06/10 01:58:10;;;;;;;10.88;10.07;;;;;;;18.10;71.19;98925.09;5019793;28;20120;-67
2021/06/10 02:00:36;;;;;;;11.32;10.38;;;;;;;18.06;71.20;98915.78;5018028;28;20338;-67
2021/06/10 02:03:03;;;;;;;10.18;9.18;;;;;;;18.00;71.46;98915.19;5022429;28;20061;-65
2021/06/10 02:05:30;;;;;;;9.77;8.98;;;;;;;18.03;70.71;98915.91;5020594;28;20034;-65
2021/06/10 02:07:56;;;;;;;9.77;9.02;;;;;;;18.10;69.88;98919.06;5019413;28;20049;-66
2021/06/10 02:10:24;;;;;;;9.15;8.35;;;;;;;18.13;69.87;98924.94;5021223;28;20030;-67
2021/06/10 02:12:50;;;;;;;10.65;9.77;;;;;;;18.07;70.73;98920.06;5020938;28;20079;-65
2021/06/10 02:15:17;;;;;;;9.23;8.52;;;;;;;18.04;71.13;98920.16;5022988;28;20291;-66
2021/06/10 02:17:43;;;;;;;8.75;7.85;;;;;;;17.96;72.06;98917.06;5024048;28;20089;-63
2021/06/10 02:20:13;;;;;;;10.13;9.25;;;;;;;17.98;72.29;98911.84;5026988;28;20062;-63
2021/06/10 02:22:39;;;;;;;10.68;9.38;;;;;;;17.96;71.93;98909.28;5024607;28;20029;-61
2021/06/10 02:25:04;;;;;;;8.43;7.63;;;;;;;18.04;70.24;98907.19;5028256;28;20033;-62
2021/06/10 02:27:30;;;;;;;8.73;7.88;;;;;;;18.23;68.76;98905.47;5025259;28;20030;-63
2021/06/10 02:29:55;;;;;;;9.27;8.50;;;;;;;18.26;68.80;98905.31;5025502;28;20030;-61
2021/06/10 02:32:21;;;;;;;9.68;8.82;;;;;;;18.30;68.60;98905.19;5027653;28;20042;-62
2021/06/10 02:34:47;;;;;;;10.77;8.32;;;;;;;18.22;69.19;98902.94;5025692;28;20141;-66
2021/06/10 02:37:15;;;;;;;9.48;8.23;;;;;;;18.09;69.12;98899.22;5024992;28;20112;-65
2021/06/10 02:39:43;;;;;;;11.00;9.65;;;;;;;18.15;68.88;98914.50;5025536;28;20239;-66
2021/06/10 02:42:14;;;;;;;9.07;8.10;;;;;;;18.12;69.01;98906.88;5027970;28;20068;-65
2021/06/10 02:44:49;;;;;;;9.70;8.90;;;;;;;18.11;68.94;98902.59;5025910;28;20034;-67
2021/06/10 02:47:15;;;;;;;;;;;;;;;18.13;69.13;98914.56;5032581;28;20030;-66
2021/06/10 02:49:45;;;;;;;8.73;7.93;;;;;;;18.12;69.78;98917.25;5026416;28;19932;-66
2021/06/10 02:52:11;;;;;;;9.45;7.97;;;;;;;18.03;69.76;98908.13;5025703;28;20298;-67
2021/06/10 02:54:37;;;;;;;9.65;8.75;;;;;;;18.04;69.93;98912.38;5024761;28;20124;-66
2021/06/10 02:57:06;;;;;;;9.27;8.48;;;;;;;17.93;70.76;98909.44;5024246;28;20116;-65
2021/06/10 02:59:33;;;;;;;9.48;8.68;;;;;;;17.86;71.53;98910.63;5023637;28;20124;-66
2021/06/10 03:01:59;;;;;;;10.27;9.38;;;;;;;17.76;72.30;98905.00;5026263;28;20383;-66
2021/06/10 03:04:25;;;;;;;9.63;8.73;;;;;;;17.78;72.33;98904.91;5025869;28;20029;-65
2021/06/10 03:06:52;;;;;;;9.73;8.90;;;;;;;17.78;72.40;98905.75;5025777;28;20096;-66
2021/06/10 03:09:18;;;;;;;10.35;9.35;;;;;;;17.84;72.61;98901.22;5020992;28;20049;-66
2021/06/10 03:11:45;;;;;;;10.80;9.82;;;;;;;17.83;72.52;98900.38;5023055;28;20052;-65
2021/06/10 03:14:12;;;;;;;10.90;9.80;;;;;;;17.78;72.90;98897.97;5024958;28;20036;-66
2021/06/10 03:16:40;;;;;;;10.27;9.38;;;;;;;17.75;72.92;98892.06;5020856;28;20028;-67
2021/06/10 03:19:07;;;;;;;10.60;9.52;;;;;;;17.72;73.32;98903.44;5022925;28;20026;-65
2021/06/10 03:21:33;;;;;;;10.80;9.80;;;;;;;17.72;73.19;98907.78;5024489;28;20103;-65
2021/06/10 03:23:59;;;;;;;10.30;8.75;;;;;;;17.56;74.16;98897.19;5023657;28;20374;-68
2021/06/10 03:26:26;;;;;;;11.38;10.15;;;;;;;17.60;73.69;98906.56;5022228;28;20036;-66
2021/06/10 03:28:51;;;;;;;10.48;9.48;;;;;;;17.62;73.75;98907.31;5026214;28;20044;-68
2021/06/10 03:31:20;;;;;;;11.63;10.23;;;;;;;17.72;73.23;98905.19;5023039;28;20047;-69
2021/06/10 03:33:47;;;;;;;9.80;9.00;;;;;;;17.65;73.43;98904.59;5021087;28;20053;-66
2021/06/10 03:36:14;;;;;;;11.02;9.00;;;;;;;17.69;73.38;98913.94;5020918;28;20057;-66
2021/06/10 03:38:40;;;;;;;10.65;9.55;;;;;;;17.75;72.69;98912.81;5021126;28;20030;-66
2021/06/10 03:41:06;;;;;;;10.00;9.10;;;;;;;17.66;72.69;98914.06;5024009;28;20191;-67
2021/06/10 03:43:34;;;;;;;9.18;8.43;;;;;;;17.70;72.39;98912.19;5024494;28;20055;-66
2021/06/10 03:46:00;;;;;;;10.77;9.77;;;;;;;17.75;72.09;98907.63;5024634;28;20033;-66
2021/06/10 03:48:25;;;;;;;10.15;9.25;;;;;;;17.80;72.12;98909.13;5020756;28;20413;-66
2021/06/10 03:50:51;;;;;;;10.82;9.88;;;;;;;17.84;72.02;98912.44;5019896;28;20038;-66
2021/06/10 03:53:16;;;;;;;10.50;9.48;;;;;;;17.87;72.09;98917.47;5020900;28;20044;-66
2021/06/10 03:55:42;;;;;;;10.98;9.90;;;;;;;17.86;72.02;98912.38;5022038;28;20029;-66
2021/06/10 03:58:07;;;;;;;10.73;9.75;;;;;;;17.76;72.28;98919.69;5023546;28;20030;-66
2021/06/10 04:00:33;;;;;;;10.00;9.20;;;;;;;17.73;72.51;98928.47;5022045;28;20334;-66
2021/06/10 04:03:01;;;;;;;9.63;8.82;;;;;;;17.82;72.48;98916.84;5019898;28;20026;-66
2021/06/10 04:05:30;;;;;;;10.40;9.45;;;;;;;18.07;71.49;98927.00;5021126;28;20109;-66
2021/06/10 04:07:57;;;;;;;11.57;9.75;;;;;;;18.21;71.22;98929.78;5014787;28;173079;-66
2021/06/10 04:10:22;;;;;;;12.25;10.07;;;;;;;18.37;70.26;98928.22;5021389;28;20644;-66
2021/06/10 04:12:48;;;;;;;9.35;8.02;;;;;;;18.45;69.59;98917.47;5022883;28;20962;-66
2021/06/10 04:15:15;;;;;;;9.20;8.40;;;;;;;18.57;69.34;98925.56;5022199;28;20379;-66
2021/06/10 04:17:40;;;;;;;9.40;7.78;;;;;;;18.67;69.11;98936.38;5025248;28;20037;-66
2021/06/10 04:20:07;;;;;;;9.48;8.60;;;;;;;18.87;68.35;98927.63;5019869;28;20038;-66
2021/06/10 04:22:32;;;;;;;9.15;8.25;;;;;;;18.87;68.12;98922.44;5022227;28;20096;-66
2021/06/10 04:24:58;;;;;;;9.73;8.85;;;;;;;18.97;67.56;98923.66;5020041;28;20037;-66
2021/06/10 04:27:23;;;;;;;9.07;8.27;;;;;;;18.95;67.93;98925.50;5022380;28;20091;-66
2021/06/10 04:29:49;;;;;;;10.00;8.18;;;;;;;18.96;67.88;98927.19;5022725;28;20056;-66
2021/06/10 04:32:14;;;;;;;9.32;8.43;;;;;;;18.99;67.45;98920.09;5019895;28;20057;-66
2021/06/10 04:34:39;;;;;;;9.85;8.95;;;;;;;19.06;67.93;98924.06;5024297;28;20401;-66
2021/06/10 04:37:05;;;;;;;9.60;8.70;;;;;;;19.22;66.66;98918.97;5020117;28;20038;-67
2021/06/10 04:39:30;;;;;;;9.63;8.73;;;;;;;19.29;66.61;98916.91;5020302;28;20112;-67
2021/06/10 04:41:56;;;;;;;10.02;9.13;;;;;;;19.47;66.48;98919.47;5018333;28;20061;-67
2021/06/10 04:44:21;;;;;;;9.27;8.48;;;;;;;19.76;65.33;98925.78;5019428;28;20025;-66
2021/06/10 04:46:47;;;;;;;8.77;7.97;;;;;;;19.67;64.34;98917.59;5017494;28;20041;-68
2021/06/10 04:49:13;;;;;;;8.82;8.02;;;;;;;19.81;64.73;98923.78;5019096;28;20037;-67
2021/06/10 04:51:38;;;;;;;9.00;8.20;;;;;;;20.04;63.84;98919.97;5020127;28;20044;-67
2021/06/10 04:54:04;;;;;;;9.15;8.45;;;;;;;19.91;63.59;98914.56;5019298;28;20033;-66
2021/06/10 04:56:30;;;;;;;9.35;8.50;;;;;;;19.81;63.44;98918.59;5019409;28;20444;-66
2021/06/10 04:58:55;;;;;;;9.15;8.25;;;;;;;19.69;63.82;98918.38;5020031;28;20414;-66
2021/06/10 05:01:20;;;;;;;10.68;8.45;;;;;;;19.62;63.62;98912.63;5019490;28;20067;-66
2021/06/10 05:03:46;;;;;;;9.05;8.15;;;;;;;19.92;62.75;98913.66;5019049;28;20124;-66
2021/06/10 05:06:11;;;;;;;8.38;7.65;;;;;;;20.02;62.46;98920.06;5017989;28;20120;-66
2021/06/10 05:08:37;;;;;;;8.13;7.43;;;;;;;20.02;61.61;98907.06;5021397;28;20056;-66
2021/06/10 05:11:02;;;;;;;8.80;8.10;;;;;;;19.90;62.81;98920.69;5018930;28;20039;-66
2021/06/10 05:13:28;;;;;;;7.43;6.72;;;;;;;20.01;62.67;98918.38;5018982;28;20453;-66
2021/06/10 05:15:54;;;;;;;8.68;7.90;;;;;;;19.93;62.67;98917.94;5018721;28;20437;-66
2021/06/10 05:18:20;;;;;;;8.82;7.93;;;;;;;20.12;62.36;98923.00;5019093;28;20033;-66
2021/06/10 05:20:45;;;;;;;8.93;8.13;;;;;;;20.01;62.06;98925.34;5015680;28;20083;-66
2021/06/10 05:23:11;;;;;;;8.85;8.13;;;;;;;20.00;62.02;98921.91;5018031;28;20037;-66
2021/06/10 05:25:37;;;;;;;7.85;7.00;;;;;;;19.93;61.99;98925.75;5019596;28;20034;-66
2021/06/10 05:28:04;;;;;;;8.02;7.22;;;;;;;19.85;61.67;98909.69;5018969;28;20036;-66
2021/06/10 05:30:29;;;;;;;9.32;8.27;;;;;;;19.90;62.06;98930.28;5020563;28;20025;-66
2021/06/10 05:32:55;;;;;;;9.80;7.65;;;;;;;19.90;61.61;98925.06;5021667;28;20386;-66
2021/06/10 05:35:22;;;;;;;10.80;7.88;;;;;;;19.95;62.29;98930.84;5021320;28;20804;-66
2021/06/10 05:37:48;;;;;;;8.15;7.45;;;;;;;19.95;61.34;98931.69;5024787;28;20029;-65
2021/06/10 05:40:14;;;;;;;10.50;7.07;;;;;;;20.03;61.38;98926.94;5020406;28;20025;-64
2021/06/10 05:42:39;;;;;;;9.05;8.25;;;;;;;20.08;61.55;98922.31;5020745;28;20728;-64
2021/06/10 05:45:06;;;;;;;9.50;8.60;;;;;;;20.26;60.76;98932.69;5020677;28;20385;-65
2021/06/10 05:47:32;;;;;;;8.07;7.30;;;;;;;20.27;59.79;98929.16;5020406;28;20056;-65
2021/06/10 05:49:57;;;;;;;8.20;7.50;;;;;;;20.28;60.14;98923.03;5021818;28;20148;-64
2021/06/10 05:52:24;;;;;;;9.40;8.05;;;;;;;20.34;59.87;98931.38;5020672;28;20511;-63
2021/06/10 05:54:50;;;;;;;8.20;7.40;;;;;;;20.44;59.61;98929.13;5021786;28;20057;-64
2021/06/10 05:57:15;;;;;;;7.72;7.10;;;;;;;20.41;59.83;98924.09;5020744;28;20084;-67
2021/06/10 05:59:43;;;;;;;9.63;7.05;;;;;;;20.58;59.67;98934.41;5020962;28;20037;-66
2021/06/10 06:02:08;;;;;;;8.35;7.63;;;;;;;20.69;59.21;98929.47;5021515;28;20376;-66
2021/06/10 06:04:33;;;;;;;7.93;7.13;;;;;;;20.74;58.66;98919.66;5021763;28;20041;-66
2021/06/10 06:06:59;;;;;;;8.30;7.55;;;;;;;20.82;58.73;98927.88;5019972;28;20030;-67
2021/06/10 06:09:24;;;;;;;8.32;7.63;;;;;;;20.69;59.50;98929.47;5022818;28;20482;-67
2021/06/10 06:11:51;;;;;;;7.22;6.63;;;;;;;20.93;57.74;98933.31;5020090;28;20341;-67
2021/06/10 06:14:23;;;;;;;7.35;6.65;;;;;;;21.00;57.80;98927.78;5020630;28;20036;-66
2021/06/10 06:16:48;;;;;;;7.28;6.68;;;;;;;20.97;57.23;98934.81;5019284;28;20034;-67
2021/06/10 06:19:14;;;;;;;7.03;6.53;;;;;;;21.02;57.35;98931.97;5022783;28;20037;-67
2021/06/10 06:21:43;;;;;;;6.57;5.97;;;;;;;21.12;56.40;98933.16;5020788;28;20073;-67
2021/06/10 06:24:09;;;;;;;6.47;5.88;;;;;;;21.14;54.76;98931.28;5020854;28;20038;-66
2021/06/10 06:26:35;;;;;;;7.20;6.50;;;;;;;21.15;55.40;98937.34;5020357;28;20341;-66
2021/06/10 06:29:02;;;;;;;7.07;6.38;;;;;;;21.23;55.10;98937.75;5020426;28;20033;-66
2021/06/10 06:31:28;;;;;;;7.18;6.15;;;;;;;21.38;54.43;98932.50;5020871;28;20422;-66
2021/06/10 06:33:54;;;;;;;6.50;6.00;;;;;;;21.28;54.52;98940.94;5021803;28;20069;-66
2021/06/10 06:36:20;;;;;;;7.00;6.40;;;;;;;21.28;55.07;98938.34;5022669;28;20268;-67
2021/06/10 06:38:47;;;;;;;6.47;5.97;;;;;;;21.39;54.78;98928.94;5021606;28;20034;-67
2021/06/10 06:41:13;;;;;;;6.40;5.78;;;;;;;21.62;53.44;98935.44;5018549;28;20326;-66
2021/06/10 06:43:38;;;;;;;6.70;5.97;;;;;;;21.69;52.99;98934.13;5021692;28;20033;-67
2021/06/10 06:46:06;;;;;;;10.80;6.45;;;;;;;21.60;52.67;98947.72;5019672;28;20289;-67
2021/06/10 06:48:35;;;;;;;7.22;5.30;;;;;;;21.51;52.59;98940.47;5020356;28;20033;-67
2021/06/10 06:51:01;;;;;;;6.88;6.28;;;;;;;21.75;52.86;98938.16;5018480;28;20029;-67
2021/06/10 06:53:31;;;;;;;6.20;5.60;;;;;;;21.85;52.84;98945.34;5019730;28;20112;-67
2021/06/10 06:55:57;;;;;;;6.15;5.75;;;;;;;22.05;52.28;98948.56;5019996;28;20120;-67
2021/06/10 06:58:23;;;;;;;6.50;5.90;;;;;;;21.93;51.85;98942.31;5019571;28;20301;-67
2021/06/10 07:00:48;;;;;;;6.32;5.80;;;;;;;21.93;52.38;98941.50;5023417;28;20036;-67
2021/06/10 07:03:14;;;;;;;8.13;5.70;;;;;;;21.85;53.62;98952.38;5024768;28;20038;-67
2021/06/10 07:05:39;;;;;;;7.47;5.65;;;;;;;21.98;54.17;98949.88;5026229;28;20038;-67
2021/06/10 07:08:05;;;;;;;6.57;5.88;;;;;;;21.94;54.07;98948.41;5026958;28;20042;-67
2021/06/10 07:10:30;;;;;;;6.40;5.80;;;;;;;22.13;53.63;98948.94;5022689;28;20054;-67
2021/06/10 07:12:56;;;;;;;6.63;6.10;;;;;;;22.16;52.74;98951.38;5027050;28;20029;-67
2021/06/10 07:15:21;;;;;;;5.65;5.25;;;;;;;22.22;50.30;98943.16;5025433;28;20030;-67
2021/06/10 07:17:47;;;;;;;6.22;4.10;;;;;;;22.53;47.02;98953.38;5022562;28;20022;-67
2021/06/10 07:20:13;;;;;;;3.45;3.17;;;;;;;22.73;41.92;98952.19;5022589;28;20033;-66
2021/06/10 07:22:38;;;;;;;3.50;3.22;;;;;;;22.84;42.08;98943.66;5019283;28;20334;-66
2021/06/10 07:25:06;;;;;;;3.88;3.53;;;;;;;23.11;38.62;98949.72;5026969;28;20034;-66
2021/06/10 07:27:31;;;;;;;4.07;3.65;;;;;;;22.99;38.61;98943.53;5024807;28;20030;-66
2021/06/10 07:29:58;;;;;;;2.55;2.45;;;;;;;23.00;38.88;98957.44;5023649;28;20037;-66
2021/06/10 07:32:24;;;;;;;3.45;3.03;;;;;;;23.23;39.92;98952.38;5025930;28;20032;-66
2021/06/10 07:34:50;;;;;;;3.40;3.10;;;;;;;23.47;41.03;98946.50;5023556;28;20283;-67
2021/06/10 07:37:15;;;;;;;3.50;2.97;;;;;;;22.90;40.36;98944.09;5024094;28;20036;-66
2021/06/10 07:39:40;;;;;;;4.22;3.50;;;;;;;23.21;40.53;98943.78;5024638;28;20041;-66
2021/06/10 07:42:06;;;;;;;4.60;3.40;;;;;;;23.41;41.05;98931.19;5020047;28;20041;-66
2021/06/10 07:44:32;;;;;;;4.65;4.18;;;;;;;23.35;42.37;98948.13;5022184;28;20782;-66
2021/06/10 07:46:57;;;;;;;3.90;3.63;;;;;;;23.47;42.85;98941.25;5026247;28;20025;-66
2021/06/10 07:49:23;;;;;;;4.05;3.28;;;;;;;23.59;39.06;98941.28;5022903;28;20041;-66
2021/06/10 07:51:49;;;;;;;3.13;2.92;;;;;;;23.44;40.36;98939.69;5023470;28;20030;-66
2021/06/10 07:54:14;;;;;;;4.45;3.03;;;;;;;23.75;39.55;98941.09;5024112;28;20370;-66
2021/06/10 07:56:40;;;;;;;3.20;2.90;;;;;;;23.89;38.84;98948.03;5024616;28;20402;-66
2021/06/10 07:59:06;;;;;;;3.90;3.58;;;;;;;23.86;41.09;98948.22;5023434;28;20041;-66
2021/06/10 08:01:31;;;;;;;3.42;3.13;;;;;;;23.81;39.22;98945.06;5023746;28;20045;-66
2021/06/10 08:03:57;;;;;;;4.53;3.10;;;;;;;24.03;37.97;98947.91;5026416;28;20040;-66
2021/06/10 08:06:23;;;;;;;3.10;2.80;;;;;;;24.38;37.73;98953.34;5021237;28;20122;-66
2021/06/10 08:08:48;;;;;;;3.72;3.35;;;;;;;24.13;37.93;98951.56;5023659;28;20138;-66
2021/06/10 08:11:14;;;;;;;3.10;2.80;;;;;;;23.99;37.84;98954.28;5022794;28;20302;-66
2021/06/10 08:13:40;;;;;;;3.42;3.00;;;;;;;24.12;36.81;98950.72;5023807;28;20022;-66
2021/06/10 08:16:06;;;;;;;4.43;3.00;;;;;;;24.27;34.95;98954.13;5023401;28;20040;-65
2021/06/10 08:18:31;;;;;;;2.63;2.53;;;;;;;24.16;36.62;98959.25;5023236;28;20101;-66
2021/06/10 08:20:59;;;;;;;3.22;2.95;;;;;;;24.36;36.29;98958.69;5023495;28;20048;-66
2021/06/10 08:23:26;;;;;;;5.55;2.78;;;;;;;24.66;36.78;98960.94;5024924;28;20422;-66
2021/06/10 08:25:56;;;;;;;3.55;3.33;;;;;;;24.50;36.70;98961.19;5023786;28;20120;-66
2021/06/10 08:28:23;;;;;;;3.20;3.00;;;;;;;24.27;37.16;98955.91;5020347;28;20037;-66
2021/06/10 08:30:49;;;;;;;3.75;3.25;;;;;;;24.10;38.33;98951.81;5023883;28;20408;-66
2021/06/10 08:33:14;;;;;;;4.00;3.70;;;;;;;23.94;39.10;98946.75;5023200;28;20025;-65
2021/06/10 08:35:40;;;;;;;4.97;3.60;;;;;;;23.73;39.58;98953.44;5024040;28;20033;-66
2021/06/10 08:38:07;;;;;;;3.88;3.03;;;;;;;23.68;39.35;98958.16;5022806;28;20033;-66
2021/06/10 08:40:34;;;;;;;2.72;2.50;;;;;;;23.84;36.96;98950.13;5021669;28;20029;-65
2021/06/10 08:43:00;;;;;;;3.72;2.88;;;;;;;24.13;36.67;98951.56;5022751;28;20026;-66
2021/06/10 08:45:30;;;;;;;3.13;2.75;;;;;;;24.60;35.62;98948.28;5024754;28;20029;-67
2021/06/10 08:47:56;;;;;;;3.20;2.90;;;;;;;24.73;34.37;98943.00;5023068;28;20068;-67
2021/06/10 08:50:26;;;;;;;5.18;3.25;;;;;;;24.99;34.42;98947.25;5021626;28;20441;-65
2021/06/10 08:52:53;;;;;;;2.65;2.45;;;;;;;25.29;34.18;98952.84;5021675;28;20306;-66
2021/06/10 08:55:19;;;;;;;3.58;3.17;;;;;;;25.42;34.29;98947.50;5030455;28;20111;-66
2021/06/10 08:57:45;;;;;;;3.47;3.20;;;;;;;25.61;34.55;98936.50;5020341;28;20385;-66
2021/06/10 09:00:11;;;;;;;3.67;3.38;;;;;;;25.61;34.72;98934.72;5024040;28;20030;-65
2021/06/10 09:02:37;;;;;;;3.75;3.45;;;;;;;25.66;34.92;98937.00;5021514;28;20041;-65
2021/06/10 09:05:11;;;;;;;4.10;3.83;;;;;;;25.16;36.82;98946.84;5021708;28;20039;-66
2021/06/10 09:07:39;;;;;;;6.00;5.50;;;;;;;24.60;37.36;98948.28;5021314;28;20053;-67
2021/06/10 09:10:07;;;;;;;4.15;3.80;;;;;;;24.30;38.04;98950.44;5022954;28;20041;-66
2021/06/10 09:12:49;;;;;;;5.03;4.63;;;;;;;24.26;38.14;98948.97;5019566;28;20056;-66
2021/06/10 09:15:19;;;;;;;3.75;3.45;;;;;;;24.21;37.87;98946.69;5023525;28;20692;-66
2021/06/10 09:17:45;;;;;;;5.68;3.50;;;;;;;24.52;37.55;98950.63;5020625;28;20030;-66
2021/06/10 09:20:20;;;;;;;5.03;3.65;;;;;;;24.69;36.56;98950.25;5021463;28;20029;-66
2021/06/10 09:22:47;;;;;;;3.53;3.03;;;;;;;24.77;35.56;98944.44;5020845;28;20033;-67
2021/06/10 09:25:18;;;;;;;4.25;2.85;;;;;;;24.36;35.18;98950.84;5023233;28;20037;-66
2021/06/10 09:27:52;;;;;;;3.65;3.45;;;;;;;24.39;37.30;98953.25;5019639;28;20042;-66
2021/06/10 09:30:32;;;;;;;4.63;3.78;;;;;;;24.48;37.44;98957.88;5019669;28;20083;-66
2021/06/10 09:33:00;;;;;;;4.05;3.72;;;;;;;24.57;37.18;98959.81;5021936;28;20037;-66
2021/06/10 09:35:32;;;;;;;3.30;3.10;;;;;;;24.84;35.08;98959.63;5023848;28;20096;-66
2021/06/10 09:38:03;;;;;;;4.32;3.33;;;;;;;24.60;34.55;98966.63;5020209;28;20067;-66
2021/06/10 09:40:29;;;;;;;2.90;2.70;;;;;;;24.45;34.83;98952.81;5021803;28;20377;-65
2021/06/10 09:42:55;;;;;;;3.53;3.03;;;;;;;24.66;35.88;98958.31;5022286;28;20072;-66
2021/06/10 09:45:24;;;;;;;3.80;3.28;;;;;;;24.93;35.72;98960.78;5026290;28;20029;-66
2021/06/10 09:47:52;;;;;;;3.90;3.35;;;;;;;24.60;35.97;98956.16;5019207;28;20105;-67
2021/06/10 09:50:29;;;;;;;3.08;2.88;;;;;;;24.98;34.87;98956.06;5021219;28;20029;-66
2021/06/10 09:52:54;;;;;;;3.65;3.45;;;;;;;25.40;33.51;98965.19;5021245;28;20110;-66
2021/06/10 09:55:34;;;;;;;3.38;3.08;;;;;;;25.57;32.48;98953.47;5024520;28;20076;-67
2021/06/10 09:58:12;;;;;;;3.85;3.20;;;;;;;25.84;32.67;98954.81;5023019;28;20042;-66
2021/06/10 10:00:48;;;;;;;3.28;3.08;;;;;;;26.08;32.79;98959.16;5021207;28;20290;-65
2021/06/10 10:03:26;;;;;;;3.88;3.58;;;;;;;26.27;32.59;98965.53;5022349;28;20029;-65
2021/06/10 10:05:53;;;;;;;3.78;3.47;;;;;;;26.25;33.50;98962.19;5021858;28;20053;-65
2021/06/10 10:08:19;;;;;;;3.80;3.50;;;;;;;25.90;33.62;98946.47;5021510;28;20046;-65
2021/06/10 10:10:44;;;;;;;5.95;3.53;;;;;;;26.30;33.55;98953.97;5019252;28;20041;-66
2021/06/10 10:13:15;;;;;;;3.70;3.38;;;;;;;26.43;32.07;98951.19;5018991;28;20039;-66
2021/06/10 10:15:42;;;;;;;5.22;2.90;;;;;;;26.03;32.22;98951.63;5022422;28;20543;-67
2021/06/10 10:18:08;;;;;;;3.50;3.30;;;;;;;26.21;33.23;98944.16;5021075;28;20033;-66
2021/06/10 10:20:33;;;;;;;4.93;3.38;;;;;;;26.13;32.86;98946.50;5020801;28;20037;-66
2021/06/10 10:22:59;;;;;;;4.10;3.67;;;;;;;26.18;32.28;98942.53;5020825;28;20041;-66
2021/06/10 10:25:25;;;;;;;3.42;3.20;;;;;;;26.24;32.39;98941.28;5021680;28;20036;-66
2021/06/10 10:27:51;;;;;;;4.05;3.65;;;;;;;26.41;32.46;98942.59;5020062;28;20030;-66
2021/06/10 10:30:21;;;;;;;4.00;3.80;;;;;;;26.22;31.31;98933.53;5020113;28;20080;-66
2021/06/10 10:32:47;;;;;;;3.80;3.50;;;;;;;26.23;32.12;98932.53;5021758;28;20030;-66
2021/06/10 10:35:23;;;;;;;8.50;3.97;;;;;;;26.35;32.67;98942.09;5023072;28;20260;-66
2021/06/10 10:37:50;;;;;;;3.55;3.25;;;;;;;26.54;32.21;98938.03;5022054;28;20095;-66
2021/06/10 10:40:28;;;;;;;3.08;2.88;;;;;;;26.21;32.49;98936.25;5023771;28;20043;-66
2021/06/10 10:42:55;;;;;;;3.13;2.92;;;;;;;25.66;32.73;98931.75;5021767;28;20041;-66
2021/06/10 10:45:26;;;;;;;3.28;3.05;;;;;;;26.03;32.19;98920.09;5023757;28;20036;-66
2021/06/10 10:48:07;;;;;;;5.30;3.10;;;;;;;26.11;32.04;98919.50;5038864;28;20272;-66
2021/06/10 10:50:38;;;;;;;4.03;2.60;;;;;;;25.50;33.08;98910.22;5023462;28;20022;-66
2021/06/10 10:53:25;;;;;;;2.90;2.70;;;;;;;25.51;32.69;98925.81;5021471;28;20448;-66
2021/06/10 10:56:09;;;;;;;4.82;2.85;;;;;;;26.16;32.20;98920.81;5023698;28;20052;-66
2021/06/10 10:58:35;;;;;;;4.35;3.10;;;;;;;26.75;31.71;98915.28;5025755;28;20104;-66
2021/06/10 11:01:02;;;;;;;3.50;3.30;;;;;;;26.81;30.90;98904.25;5025433;28;20128;-67
2021/06/10 11:03:34;;;;;;;23.20;13.90;;;;;;;26.51;31.75;98914.63;5024707;28;20017;-66
2021/06/10 11:06:20;;;;;;;4.28;3.92;;;;;;;26.44;31.30;98911.63;5021403;28;20036;-66
2021/06/10 11:09:11;;;;;;;3.55;3.22;;;;;;;26.27;30.83;98912.09;5014475;28;20468;-67
2021/06/10 11:11:49;;;;;;;4.25;2.95;;;;;;;26.49;31.34;98909.47;5024809;28;20033;-66
2021/06/10 11:14:53;;;;;;;3.45;3.10;;;;;;;26.86;31.37;98903.94;5022711;28;20033;-67
2021/06/10 11:17:25;;;;;;;3.03;2.92;;;;;;;26.79;30.79;98895.66;5024267;28;20033;-66
2021/06/10 11:20:01;;;;;;;3.33;2.85;;;;;;;27.02;30.25;98889.38;5021401;28;20088;-67
2021/06/10 11:22:43;;;;;;;3.53;3.33;;;;;;;26.91;31.02;98883.31;5022744;28;20131;-65
2021/06/10 11:25:26;;;;;;;3.25;2.88;;;;;;;25.97;32.50;98886.41;5022839;28;20076;-66
2021/06/10 11:27:54;;;;;;;3.45;3.25;;;;;;;25.90;32.45;98901.81;5021911;28;20140;-66
2021/06/10 11:30:23;;;;;;;2.95;2.80;;;;;;;25.99;31.71;98886.28;5022115;28;20033;-66
2021/06/10 11:32:55;;;;;;;3.25;2.95;;;;;;;26.19;31.50;98886.41;5024017;28;20113;-66
2021/06/10 11:35:49;;;;;;;2.88;2.42;;;;;;;26.05;30.59;98875.31;5022128;28;20470;-66